createdAt,value
2022-08-21T00:00:29.237Z,7.46
2022-08-21T00:01:31.871Z,7.59
2022-08-21T00:02:34.521Z,6.91
2022-08-21T00:03:37.190Z,7.84
2022-08-21T00:04:39.652Z,7.76
2022-08-21T00:05:45.137Z,7.79
2022-08-21T00:06:47.826Z,7.74
2022-08-21T00:07:50.408Z,7.30
2022-08-21T00:08:52.870Z,7.92
2022-08-21T00:09:55.335Z,8.26
2022-08-21T00:10:58.127Z,8.27
2022-08-21T00:12:00.694Z,7.69
2022-08-21T00:14:16.501Z,7.76
2022-08-21T00:15:20.951Z,7.27
2022-08-21T00:16:24.221Z,7.82
2022-08-21T00:17:26.817Z,7.75
2022-08-21T00:18:29.594Z,7.69
2022-08-21T00:19:32.150Z,7.74
2022-08-21T00:20:35.517Z,7.78
2022-08-21T00:21:39.612Z,7.94
2022-08-21T00:22:42.187Z,7.56
2022-08-21T00:23:45.150Z,7.55
2022-08-21T00:24:47.697Z,7.61
2022-08-21T00:25:50.266Z,7.80
2022-08-21T00:26:53.015Z,7.75
2022-08-21T00:27:55.683Z,8.42
2022-08-21T00:28:58.953Z,7.79
2022-08-21T00:30:01.797Z,7.51
2022-08-21T00:31:04.476Z,7.30
2022-08-21T00:32:07.442Z,8.07
2022-08-21T00:33:10.123Z,7.54
2022-08-21T00:34:12.693Z,7.70
2022-08-21T00:35:16.253Z,7.88
2022-08-21T00:36:20.740Z,8.56
2022-08-21T00:37:23.296Z,8.05
2022-08-21T00:38:25.950Z,7.85
2022-08-21T00:39:28.526Z,6.86
2022-08-21T00:40:33.907Z,7.50
2022-08-21T00:41:38.952Z,6.81
2022-08-21T00:42:41.105Z,7.16
2022-08-21T00:43:43.662Z,7.93
2022-08-21T00:44:46.732Z,7.29
2022-08-21T00:45:49.279Z,7.96
2022-08-21T00:46:52.134Z,8.15
2022-08-21T00:47:54.593Z,6.89
2022-08-21T00:48:57.234Z,7.82
2022-08-21T00:50:01.435Z,7.32
2022-08-21T00:52:17.809Z,8.73
2022-08-21T00:53:20.423Z,8.68
2022-08-21T00:54:24.164Z,7.51
2022-08-21T00:55:26.646Z,8.01
2022-08-21T00:56:31.013Z,8.11
2022-08-21T00:57:38.182Z,8.09
2022-08-21T00:58:42.557Z,7.87
2022-08-21T00:59:47.513Z,8.20
2022-08-21T01:00:51.856Z,9.01
2022-08-21T01:01:54.417Z,7.88
2022-08-21T01:02:58.039Z,9.25
2022-08-21T01:04:02.793Z,8.51
2022-08-21T01:05:05.863Z,8.39
2022-08-21T01:06:09.337Z,8.34
2022-08-21T01:07:11.797Z,8.66
2022-08-21T01:08:14.383Z,8.51
2022-08-21T01:09:16.943Z,7.92
2022-08-21T01:10:24.460Z,9.43
2022-08-21T01:11:25.066Z,8.06
2022-08-21T01:12:27.645Z,8.08
2022-08-21T01:13:30.501Z,8.86
2022-08-21T01:14:32.973Z,8.81
2022-08-21T01:15:37.125Z,8.61
2022-08-21T01:16:40.541Z,8.63
2022-08-21T01:17:43.114Z,8.33
2022-08-21T01:18:45.869Z,9.45
2022-08-21T01:19:48.426Z,9.23
2022-08-21T01:22:02.793Z,9.12
2022-08-21T01:23:05.560Z,9.69
2022-08-21T01:24:08.093Z,8.71
2022-08-21T01:25:12.558Z,9.21
2022-08-21T01:26:16.853Z,9.20
2022-08-21T01:27:19.330Z,8.98
2022-08-21T01:28:21.893Z,8.45
2022-08-21T01:29:32.393Z,8.15
2022-08-21T01:30:35.480Z,8.79
2022-08-21T01:31:38.264Z,8.77
2022-08-21T01:32:40.826Z,8.96
2022-08-21T01:33:43.386Z,8.89
2022-08-21T01:34:46.448Z,8.57
2022-08-21T01:35:48.998Z,9.01
2022-08-21T01:36:51.751Z,8.07
2022-08-21T01:37:54.249Z,8.22
2022-08-21T01:38:56.699Z,8.23
2022-08-21T01:39:59.242Z,7.59
2022-08-21T01:41:02.037Z,8.08
2022-08-21T01:42:04.849Z,7.59
2022-08-21T01:43:07.405Z,7.04
2022-08-21T01:44:09.975Z,7.78
2022-08-21T01:45:12.420Z,7.35
2022-08-21T01:46:16.007Z,8.05
2022-08-21T01:47:18.493Z,7.81
2022-08-21T01:48:20.963Z,7.69
2022-08-21T01:49:23.518Z,7.89
2022-08-21T01:50:27.328Z,8.11
2022-08-21T01:51:29.777Z,8.70
2022-08-21T01:52:32.348Z,7.26
2022-08-21T01:53:35.029Z,7.94
2022-08-21T01:54:37.771Z,8.72
2022-08-21T01:55:40.335Z,8.01
2022-08-21T01:56:45.203Z,7.59
2022-08-21T01:57:47.779Z,7.78
2022-08-21T01:58:50.229Z,7.95
2022-08-21T01:59:52.885Z,7.73
2022-08-21T02:00:56.633Z,7.15
2022-08-21T02:01:59.328Z,7.39
2022-08-21T02:03:01.898Z,7.89
2022-08-21T02:04:04.578Z,7.44
2022-08-21T02:05:07.724Z,7.61
2022-08-21T02:06:14.658Z,7.34
2022-08-21T02:07:17.157Z,6.71
2022-08-21T02:08:19.701Z,7.51
2022-08-21T02:09:23.201Z,7.01
2022-08-21T02:10:28.532Z,7.97
2022-08-21T02:11:31.633Z,7.52
2022-08-21T02:12:34.090Z,7.83
2022-08-21T02:13:36.676Z,7.24
2022-08-21T02:14:39.235Z,7.46
2022-08-21T02:15:41.702Z,7.15
2022-08-21T02:16:45.057Z,6.65
2022-08-21T02:17:51.897Z,6.88
2022-08-21T02:18:54.507Z,7.42
2022-08-21T02:19:57.066Z,8.29
2022-08-21T02:21:00.052Z,7.33
2022-08-21T02:22:02.755Z,7.09
2022-08-21T02:23:05.659Z,7.38
2022-08-21T02:24:08.343Z,6.89
2022-08-21T02:25:11.218Z,8.10
2022-08-21T02:26:15.578Z,7.26
2022-08-21T02:27:18.033Z,7.09
2022-08-21T02:28:22.435Z,7.06
2022-08-21T02:29:25.000Z,6.42
2022-08-21T02:30:31.105Z,7.26
2022-08-21T02:31:33.696Z,7.29
2022-08-21T02:32:36.313Z,7.42
2022-08-21T02:33:38.845Z,7.37
2022-08-21T02:34:41.534Z,6.74
2022-08-21T02:35:44.398Z,6.87
2022-08-21T02:36:47.255Z,7.38
2022-08-21T02:37:53.521Z,6.90
2022-08-21T02:38:56.137Z,6.92
2022-08-21T02:39:59.693Z,7.39
2022-08-21T02:41:02.451Z,6.44
2022-08-21T02:42:05.036Z,7.23
2022-08-21T02:43:07.583Z,6.73
2022-08-21T02:44:10.125Z,7.22
2022-08-21T02:45:12.994Z,7.87
2022-08-21T02:46:18.017Z,7.59
2022-08-21T02:47:20.582Z,6.87
2022-08-21T02:48:24.340Z,7.41
2022-08-21T02:49:27.050Z,7.00
2022-08-21T02:50:31.305Z,6.97
2022-08-21T02:51:33.996Z,6.46
2022-08-21T02:52:36.540Z,6.58
2022-08-21T02:53:39.295Z,6.95
2022-08-21T02:54:41.894Z,7.01
2022-08-21T02:55:45.069Z,6.60
2022-08-21T02:56:49.546Z,6.61
2022-08-21T02:57:52.489Z,6.48
2022-08-21T02:58:55.044Z,6.27
2022-08-21T02:59:58.807Z,6.56
2022-08-21T03:01:01.621Z,6.43
2022-08-21T03:02:04.377Z,5.79
2022-08-21T03:03:06.958Z,6.57
2022-08-21T03:04:09.608Z,6.15
2022-08-21T03:05:12.234Z,6.47
2022-08-21T03:06:17.607Z,6.22
2022-08-21T03:07:20.446Z,6.39
2022-08-21T03:08:24.255Z,6.10
2022-08-21T03:09:27.458Z,7.61
2022-08-21T03:10:30.544Z,6.57
2022-08-21T03:11:33.153Z,6.18
2022-08-21T03:12:35.828Z,6.33
2022-08-21T03:13:38.497Z,7.03
2022-08-21T03:14:41.060Z,6.61
2022-08-21T03:15:43.723Z,6.35
2022-08-21T03:16:46.570Z,6.17
2022-08-21T03:17:49.240Z,7.45
2022-08-21T03:18:51.808Z,6.32
2022-08-21T03:19:54.466Z,7.03
2022-08-21T03:20:57.666Z,5.76
2022-08-21T03:22:00.439Z,6.12
2022-08-21T03:23:03.199Z,6.56
2022-08-21T03:24:05.900Z,6.73
2022-08-21T03:25:09.457Z,6.45
2022-08-21T03:26:15.606Z,6.46
2022-08-21T03:27:18.757Z,6.16
2022-08-21T03:28:22.643Z,6.11
2022-08-21T03:29:25.185Z,6.53
2022-08-21T03:30:28.263Z,6.64
2022-08-21T03:31:30.932Z,6.45
2022-08-21T03:32:33.408Z,6.15
2022-08-21T03:33:35.874Z,6.78
2022-08-21T03:34:38.425Z,6.32
2022-08-21T03:35:41.782Z,5.58
2022-08-21T03:36:44.446Z,6.08
2022-08-21T03:37:46.913Z,6.61
2022-08-21T03:38:49.388Z,6.59
2022-08-21T03:39:51.987Z,6.27
2022-08-21T03:40:54.803Z,6.23
2022-08-21T03:41:57.389Z,6.40
2022-08-21T03:42:59.964Z,7.19
2022-08-21T03:44:03.137Z,6.18
2022-08-21T03:45:06.360Z,6.03
2022-08-21T03:46:09.755Z,6.12
2022-08-21T03:47:12.337Z,6.61
2022-08-21T03:48:14.883Z,6.58
2022-08-21T03:49:17.269Z,6.89
2022-08-21T03:50:22.689Z,6.79
2022-08-21T03:51:25.268Z,6.71
2022-08-21T03:52:27.913Z,6.21
2022-08-21T03:53:30.790Z,6.77
2022-08-21T03:54:33.220Z,5.67
2022-08-21T03:55:35.680Z,6.17
2022-08-21T03:56:38.834Z,5.75
2022-08-21T03:57:42.542Z,6.23
2022-08-21T03:58:45.229Z,6.14
2022-08-21T03:59:47.884Z,6.51
2022-08-21T04:00:52.160Z,6.40
2022-08-21T04:01:55.479Z,5.66
2022-08-21T04:02:58.166Z,6.28
2022-08-21T04:04:00.682Z,6.55
2022-08-21T04:05:03.779Z,6.89
2022-08-21T04:06:06.910Z,6.13
2022-08-21T04:07:09.458Z,5.84
2022-08-21T04:08:12.151Z,6.03
2022-08-21T04:09:14.616Z,6.09
2022-08-21T04:10:19.054Z,6.02
2022-08-21T04:11:21.710Z,6.32
2022-08-21T04:12:24.270Z,6.35
2022-08-21T04:13:26.860Z,6.23
2022-08-21T04:14:29.565Z,5.78
2022-08-21T04:15:32.116Z,5.74
2022-08-21T04:16:35.549Z,6.51
2022-08-21T04:17:38.098Z,6.32
2022-08-21T04:18:40.674Z,6.73
2022-08-21T04:19:43.335Z,5.79
2022-08-21T04:20:50.117Z,6.49
2022-08-21T04:21:52.629Z,5.99
2022-08-21T04:22:55.408Z,6.30
2022-08-21T04:23:58.455Z,6.15
2022-08-21T04:25:01.115Z,5.71
2022-08-21T04:26:04.423Z,6.14
2022-08-21T04:27:06.978Z,5.99
2022-08-21T04:28:09.538Z,6.76
2022-08-21T04:29:12.161Z,6.23
2022-08-21T04:30:15.926Z,5.52
2022-08-21T04:31:18.673Z,5.67
2022-08-21T04:32:22.448Z,5.75
2022-08-21T04:33:25.156Z,6.82
2022-08-21T04:34:28.135Z,5.60
2022-08-21T04:35:31.089Z,5.82
2022-08-21T04:36:36.630Z,6.65
2022-08-21T04:37:42.136Z,6.30
2022-08-21T04:38:44.600Z,5.58
2022-08-21T04:39:51.485Z,6.10
2022-08-21T04:40:52.334Z,6.13
2022-08-21T04:41:54.901Z,6.33
2022-08-21T04:42:59.085Z,6.11
2022-08-21T04:44:03.583Z,6.51
2022-08-21T04:46:16.456Z,5.70
2022-08-21T04:47:19.031Z,6.48
2022-08-21T04:48:21.780Z,5.39
2022-08-21T04:49:24.473Z,5.99
2022-08-21T04:51:40.133Z,6.18
2022-08-21T04:52:42.702Z,5.90
2022-08-21T04:53:47.045Z,5.69
2022-08-21T04:54:54.345Z,5.53
2022-08-21T04:55:54.042Z,5.34
2022-08-21T04:56:58.215Z,6.08
2022-08-21T04:58:00.792Z,5.56
2022-08-21T04:59:04.750Z,6.21
2022-08-21T05:00:12.373Z,6.20
2022-08-21T05:02:27.685Z,5.89
2022-08-21T05:03:31.260Z,6.15
2022-08-21T05:04:33.809Z,7.23
2022-08-21T05:05:36.402Z,6.03
2022-08-21T05:06:41.381Z,5.64
2022-08-21T05:07:44.062Z,6.35
2022-08-21T05:08:47.125Z,5.94
2022-08-21T05:09:49.682Z,6.17
2022-08-21T05:10:54.149Z,6.34
2022-08-21T05:11:56.734Z,5.33
2022-08-21T05:12:59.396Z,5.95
2022-08-21T05:14:01.875Z,5.73
2022-08-21T05:15:04.708Z,5.99
2022-08-21T05:16:07.788Z,5.23
2022-08-21T05:17:10.341Z,5.75
2022-08-21T05:18:12.820Z,5.73
2022-08-21T05:19:15.306Z,5.33
2022-08-21T05:20:19.371Z,5.81
2022-08-21T05:21:21.825Z,5.59
2022-08-21T05:22:24.289Z,5.07
2022-08-21T05:23:26.855Z,5.63
2022-08-21T05:24:29.521Z,5.09
2022-08-21T05:25:31.981Z,5.91
2022-08-21T05:26:45.238Z,5.41
2022-08-21T05:27:41.248Z,5.51
2022-08-21T05:28:45.450Z,5.51
2022-08-21T05:29:49.439Z,6.29
2022-08-21T05:30:53.620Z,5.48
2022-08-21T05:31:56.181Z,5.21
2022-08-21T05:32:59.411Z,5.55
2022-08-21T05:34:02.221Z,5.15
2022-08-21T05:35:06.134Z,5.46
2022-08-21T05:36:10.500Z,5.56
2022-08-21T05:37:13.075Z,6.22
2022-08-21T05:38:17.763Z,4.89
2022-08-21T05:39:20.014Z,6.25
2022-08-21T05:40:23.536Z,4.46
2022-08-21T05:41:26.047Z,5.37
2022-08-21T05:43:11.461Z,5.43
2022-08-21T05:44:14.122Z,5.61
2022-08-21T05:45:16.789Z,5.55
2022-08-21T05:46:21.878Z,5.81
2022-08-21T05:47:24.910Z,5.13
2022-08-21T05:48:27.437Z,5.99
2022-08-21T05:49:29.993Z,4.71
2022-08-21T05:50:33.762Z,5.31
2022-08-21T05:51:36.571Z,5.16
2022-08-21T05:52:39.021Z,5.47
2022-08-21T05:53:41.721Z,5.48
2022-08-21T05:54:44.289Z,5.72
2022-08-21T05:55:48.078Z,5.46
2022-08-21T05:56:50.958Z,5.31
2022-08-21T05:57:53.629Z,5.50
2022-08-21T06:00:06.553Z,6.01
2022-08-21T06:01:09.486Z,5.37
2022-08-21T06:02:11.981Z,5.54
2022-08-21T06:03:18.241Z,5.62
2022-08-21T06:04:20.832Z,5.23
2022-08-21T06:05:25.164Z,4.45
2022-08-21T06:06:29.108Z,5.38
2022-08-21T06:07:31.574Z,5.85
2022-08-21T06:08:34.247Z,5.76
2022-08-21T06:09:36.707Z,4.90
2022-08-21T06:10:39.549Z,4.75
2022-08-21T06:11:42.149Z,6.55
2022-08-21T06:12:44.715Z,5.67
2022-08-21T06:13:47.182Z,4.84
2022-08-21T06:14:49.751Z,5.02
2022-08-21T06:15:54.243Z,4.79
2022-08-21T06:16:58.897Z,5.40
2022-08-21T06:18:01.491Z,5.43
2022-08-21T06:19:04.082Z,5.62
2022-08-21T06:20:07.878Z,5.35
2022-08-21T06:21:10.501Z,4.87
2022-08-21T06:22:13.053Z,5.23
2022-08-21T06:23:15.505Z,5.13
2022-08-21T06:24:17.970Z,5.36
2022-08-21T06:25:20.449Z,4.91
2022-08-21T06:26:23.448Z,5.00
2022-08-21T06:27:26.756Z,5.61
2022-08-21T06:28:29.381Z,4.54
2022-08-21T06:29:32.334Z,5.29
2022-08-21T06:30:37.876Z,5.61
2022-08-21T06:31:40.342Z,4.81
2022-08-21T06:32:43.494Z,4.44
2022-08-21T06:33:46.163Z,5.23
2022-08-21T06:34:48.721Z,5.54
2022-08-21T06:35:51.213Z,4.93
2022-08-21T06:38:05.754Z,5.94
2022-08-21T06:39:25.405Z,5.05
2022-08-21T06:40:14.998Z,4.80
2022-08-21T06:41:17.518Z,5.18
2022-08-21T06:42:20.078Z,5.98
2022-08-21T06:43:22.648Z,5.36
2022-08-21T06:44:27.038Z,5.22
2022-08-21T06:45:32.163Z,5.02
2022-08-21T06:46:35.624Z,5.57
2022-08-21T06:47:38.200Z,5.51
2022-08-21T06:48:41.045Z,5.21
2022-08-21T06:49:43.610Z,5.31
2022-08-21T06:50:46.777Z,5.25
2022-08-21T06:51:49.235Z,4.85
2022-08-21T06:52:53.566Z,5.09
2022-08-21T06:53:56.170Z,5.85
2022-08-21T06:54:58.736Z,5.39
2022-08-21T06:56:01.427Z,4.81
2022-08-21T06:57:04.098Z,5.09
2022-08-21T06:58:06.572Z,5.33
2022-08-21T06:59:09.126Z,5.61
2022-08-21T07:00:12.886Z,4.75
2022-08-21T07:01:15.460Z,5.13
2022-08-21T07:02:18.419Z,5.71
2022-08-21T07:03:21.892Z,4.63
2022-08-21T07:04:24.378Z,4.76
2022-08-21T07:05:27.521Z,5.12
2022-08-21T07:06:30.420Z,5.86
2022-08-21T07:07:34.916Z,5.88
2022-08-21T07:08:37.483Z,4.83
2022-08-21T07:09:40.060Z,5.28
2022-08-21T07:10:42.718Z,5.10
2022-08-21T07:11:47.534Z,5.51
2022-08-21T07:14:00.854Z,5.40
2022-08-21T07:15:03.992Z,4.74
2022-08-21T07:16:06.761Z,5.26
2022-08-21T07:17:09.325Z,5.39
2022-08-21T07:18:11.914Z,5.36
2022-08-21T07:19:14.501Z,5.00
2022-08-21T07:20:18.302Z,6.04
2022-08-21T07:21:25.613Z,4.60
2022-08-21T07:22:25.332Z,5.33
2022-08-21T07:23:28.805Z,5.14
2022-08-21T07:24:31.268Z,5.78
2022-08-21T07:25:33.871Z,4.83
2022-08-21T07:26:37.099Z,5.85
2022-08-21T07:27:39.704Z,5.64
2022-08-21T07:28:42.280Z,6.44
2022-08-21T07:29:44.776Z,5.54
2022-08-21T07:30:49.813Z,5.11
2022-08-21T07:31:52.407Z,5.26
2022-08-21T07:32:55.182Z,5.53
2022-08-21T07:33:57.747Z,6.10
2022-08-21T07:35:00.322Z,5.32
2022-08-21T07:36:03.211Z,5.52
2022-08-21T07:37:06.070Z,5.91
2022-08-21T07:39:20.214Z,5.24
2022-08-21T07:40:23.348Z,5.73
2022-08-21T07:41:26.581Z,6.03
2022-08-21T07:42:29.450Z,5.75
2022-08-21T07:43:32.014Z,5.41
2022-08-21T07:44:34.610Z,5.71
2022-08-21T07:45:37.079Z,5.61
2022-08-21T07:46:39.860Z,4.81
2022-08-21T07:47:43.159Z,5.66
2022-08-21T07:48:45.819Z,5.15
2022-08-21T07:49:48.283Z,5.13
2022-08-21T07:50:51.163Z,6.61
2022-08-21T07:51:53.731Z,5.29
2022-08-21T07:52:56.195Z,5.62
2022-08-21T07:53:58.636Z,5.06
2022-08-21T07:55:05.536Z,5.26
2022-08-21T07:56:06.061Z,5.22
2022-08-21T07:57:09.620Z,5.84
2022-08-21T07:58:12.093Z,5.51
2022-08-21T07:59:14.692Z,6.07
2022-08-21T08:00:19.257Z,5.15
2022-08-21T08:01:21.807Z,4.95
2022-08-21T08:02:29.400Z,5.24
2022-08-21T08:03:32.120Z,5.38
2022-08-21T08:04:34.685Z,4.98
2022-08-21T08:05:37.134Z,5.15
2022-08-21T08:06:40.658Z,5.09
2022-08-21T08:07:43.233Z,4.77
2022-08-21T08:08:45.746Z,5.49
2022-08-21T08:09:48.216Z,5.38
2022-08-21T08:10:50.886Z,4.81
2022-08-21T08:11:53.456Z,5.01
2022-08-21T08:12:57.847Z,5.88
2022-08-21T08:14:00.632Z,5.58
2022-08-21T08:15:03.528Z,5.91
2022-08-21T08:16:06.816Z,6.34
2022-08-21T08:17:09.332Z,5.49
2022-08-21T08:18:11.898Z,5.97
2022-08-21T08:19:14.594Z,5.31
2022-08-21T08:20:18.458Z,6.43
2022-08-21T08:21:21.066Z,5.73
2022-08-21T08:22:23.688Z,5.11
2022-08-21T08:23:26.221Z,5.33
2022-08-21T08:24:28.869Z,6.32
2022-08-21T08:25:36.659Z,5.66
2022-08-21T08:26:37.702Z,5.28
2022-08-21T08:27:40.531Z,6.03
2022-08-21T08:28:43.087Z,5.89
2022-08-21T08:29:45.892Z,4.97
2022-08-21T08:31:58.622Z,5.63
2022-08-21T08:33:01.410Z,6.16
2022-08-21T08:34:04.034Z,6.56
2022-08-21T08:35:06.925Z,6.06
2022-08-21T08:36:14.807Z,5.49
2022-08-21T08:37:17.697Z,5.71
2022-08-21T08:38:20.959Z,5.54
2022-08-21T08:39:26.519Z,5.11
2022-08-21T08:40:33.152Z,5.26
2022-08-21T08:41:35.838Z,4.73
2022-08-21T08:42:40.138Z,5.92
2022-08-21T08:43:44.575Z,5.09
2022-08-21T08:44:47.068Z,5.06
2022-08-21T08:45:50.470Z,6.26
2022-08-21T08:46:53.659Z,5.76
2022-08-21T08:49:28.488Z,4.92
2022-08-21T08:50:41.026Z,6.07
2022-08-21T08:51:45.799Z,6.64
2022-08-21T08:52:55.253Z,5.21
2022-08-21T08:54:00.869Z,5.69
2022-08-21T08:55:05.373Z,5.34
2022-08-21T08:56:08.264Z,5.24
2022-08-21T08:57:12.749Z,5.66
2022-08-21T08:58:29.156Z,6.09
2022-08-21T09:00:46.940Z,5.16
2022-08-21T09:01:49.636Z,4.97
2022-08-21T09:02:53.502Z,5.09
2022-08-21T09:03:56.069Z,5.69
2022-08-21T09:04:59.081Z,4.93
2022-08-21T09:06:06.577Z,4.78
2022-08-21T09:07:12.054Z,4.99
2022-08-21T09:08:35.013Z,5.16
2022-08-21T09:11:04.927Z,5.09
2022-08-21T09:12:12.475Z,6.04
2022-08-21T09:13:38.510Z,4.82
2022-08-21T09:14:47.373Z,5.34
2022-08-21T09:16:08.445Z,5.04
2022-08-21T09:17:12.852Z,5.26
2022-08-21T09:18:17.221Z,5.49
2022-08-21T09:19:38.682Z,5.71
2022-08-21T09:20:43.272Z,5.51
2022-08-21T09:21:53.561Z,5.12
2022-08-21T09:23:04.323Z,5.57
2022-08-21T09:24:11.551Z,6.22
2022-08-21T09:25:22.090Z,4.96
2022-08-21T09:26:27.971Z,5.16
2022-08-21T09:27:30.465Z,5.58
2022-08-21T09:28:36.431Z,5.58
2022-08-21T09:29:40.110Z,5.16
2022-08-21T09:30:42.999Z,5.35
2022-08-21T09:31:45.561Z,5.22
2022-08-21T09:32:48.362Z,5.43
2022-08-21T09:33:50.903Z,10.98
2022-08-21T09:34:57.937Z,6.92
2022-08-21T09:36:00.552Z,5.57
2022-08-21T09:37:03.226Z,5.93
2022-08-21T09:38:06.408Z,4.55
2022-08-21T09:39:09.621Z,5.19
2022-08-21T09:40:21.749Z,4.85
2022-08-21T09:41:30.860Z,5.32
2022-08-21T09:42:33.445Z,5.03
2022-08-21T09:43:36.769Z,5.39
2022-08-21T09:44:40.526Z,4.79
2022-08-21T09:45:43.116Z,4.63
2022-08-21T09:46:51.800Z,5.27
2022-08-21T09:47:54.287Z,4.91
2022-08-21T09:48:57.951Z,4.34
2022-08-21T09:51:20.168Z,4.47
2022-08-21T09:52:22.873Z,4.89
2022-08-21T09:53:32.566Z,5.01
2022-08-21T09:54:34.678Z,4.97
2022-08-21T09:55:42.097Z,4.54
2022-08-21T09:56:55.633Z,4.39
2022-08-21T09:57:58.337Z,4.58
2022-08-21T09:59:00.831Z,4.00
2022-08-21T10:00:11.508Z,4.39
2022-08-21T10:01:15.584Z,4.29
2022-08-21T10:02:29.273Z,5.09
2022-08-21T10:03:33.187Z,4.44
2022-08-21T10:04:35.776Z,5.32
2022-08-21T10:05:38.487Z,4.77
2022-08-21T10:06:41.348Z,4.46
2022-08-21T10:07:46.540Z,3.83
2022-08-21T10:08:49.141Z,4.68
2022-08-21T10:10:05.435Z,4.84
2022-08-21T10:11:09.038Z,4.75
2022-08-21T10:13:31.813Z,4.14
2022-08-21T10:14:36.282Z,4.69
2022-08-21T10:15:48.465Z,5.07
2022-08-21T10:17:00.337Z,4.13
2022-08-21T10:19:25.905Z,3.83
2022-08-21T10:20:41.422Z,4.81
2022-08-21T10:21:45.869Z,4.11
2022-08-21T10:22:55.053Z,4.24
2022-08-21T10:23:59.625Z,3.78
2022-08-21T10:25:09.917Z,4.28
2022-08-21T10:26:18.072Z,4.17
2022-08-21T10:27:40.978Z,3.95
2022-08-21T10:30:03.826Z,4.23
2022-08-21T10:31:11.314Z,3.90
2022-08-21T10:32:34.271Z,4.79
2022-08-21T10:33:51.034Z,4.60
2022-08-21T10:36:16.705Z,4.57
2022-08-21T10:37:24.378Z,3.89
2022-08-21T10:39:02.341Z,4.38
2022-08-21T10:39:57.660Z,4.08
2022-08-21T10:42:28.464Z,3.85
2022-08-21T10:43:32.665Z,3.38
2022-08-21T10:44:37.063Z,3.55
2022-08-21T10:45:56.738Z,4.15
2022-08-21T10:47:01.989Z,4.12
2022-08-21T10:48:05.592Z,4.24
2022-08-21T10:51:58.333Z,4.79
2022-08-21T10:53:02.703Z,3.68
2022-08-21T10:54:07.089Z,4.48
2022-08-21T10:55:11.558Z,3.95
2022-08-21T10:57:44.117Z,3.61
2022-08-21T10:58:48.594Z,4.75
2022-08-21T10:59:52.994Z,4.42
2022-08-21T11:00:57.650Z,4.27
2022-08-21T11:05:53.102Z,3.71
2022-08-21T11:07:04.001Z,4.83
2022-08-21T11:08:10.284Z,4.12
2022-08-21T11:09:14.270Z,4.55
2022-08-21T11:10:24.496Z,4.63
2022-08-21T11:11:34.795Z,5.21
2022-08-21T11:12:36.052Z,4.54
2022-08-21T11:13:49.516Z,4.85
2022-08-21T11:15:02.978Z,3.59
2022-08-21T11:16:07.834Z,3.96
2022-08-21T11:17:12.086Z,3.71
2022-08-21T11:18:28.225Z,4.08
2022-08-21T11:19:41.645Z,3.46
2022-08-21T11:21:04.917Z,4.33
2022-08-21T11:22:18.286Z,2.75
2022-08-21T11:23:25.584Z,4.18
2022-08-21T11:24:32.913Z,3.87
2022-08-21T11:25:37.125Z,3.58
2022-08-21T11:26:45.013Z,3.61
2022-08-21T11:27:56.432Z,3.91
2022-08-21T11:29:00.924Z,4.39
2022-08-21T11:30:04.020Z,3.86
2022-08-21T11:32:46.796Z,4.08
2022-08-21T11:33:51.334Z,3.76
2022-08-21T11:35:11.228Z,4.07
2022-08-21T11:36:17.010Z,3.93
2022-08-21T11:37:24.466Z,3.10
2022-08-21T11:38:28.942Z,3.77
2022-08-21T11:41:02.337Z,4.27
2022-08-21T11:42:10.067Z,4.22
2022-08-21T11:43:23.449Z,4.32
2022-08-21T11:44:40.190Z,3.53
2022-08-21T11:45:47.670Z,3.56
2022-08-21T11:47:01.372Z,3.74
2022-08-21T11:48:15.085Z,3.76
2022-08-21T11:49:36.374Z,3.94
2022-08-21T11:50:40.383Z,3.88
2022-08-21T11:51:44.722Z,3.79
2022-08-21T11:52:55.135Z,3.95
2022-08-21T11:55:14.741Z,3.30
2022-08-21T11:56:28.090Z,3.89
2022-08-21T11:58:43.641Z,3.76
2022-08-21T11:59:48.001Z,4.61
2022-08-21T12:00:52.390Z,3.67
2022-08-21T12:01:55.168Z,4.52
2022-08-21T12:03:14.274Z,3.99
2022-08-21T12:04:18.938Z,3.43
2022-08-21T12:05:29.461Z,4.04
2022-08-21T12:06:33.462Z,3.64
2022-08-21T12:07:37.883Z,3.99
2022-08-21T12:08:41.567Z,3.81
2022-08-21T12:09:56.116Z,3.38
2022-08-21T12:11:01.006Z,3.38
2022-08-21T12:12:13.779Z,3.62
2022-08-21T12:14:39.553Z,3.71
2022-08-21T12:15:42.151Z,3.26
2022-08-21T12:19:22.917Z,4.73
2022-08-21T12:20:29.263Z,4.35
2022-08-21T12:21:31.978Z,3.96
2022-08-21T12:22:38.189Z,3.80
2022-08-21T12:24:01.776Z,3.96
2022-08-21T12:25:06.178Z,3.56
2022-08-21T12:26:12.565Z,3.46
2022-08-21T12:27:19.938Z,3.79
2022-08-21T12:28:23.124Z,3.81
2022-08-21T12:29:32.166Z,4.59
2022-08-21T12:30:36.056Z,3.41
2022-08-21T12:31:40.424Z,3.88
2022-08-21T12:32:44.277Z,4.44
2022-08-21T12:33:48.623Z,4.01
2022-08-21T12:34:54.013Z,3.99
2022-08-21T12:36:04.651Z,4.49
2022-08-21T12:37:09.154Z,4.08
2022-08-21T12:38:15.895Z,3.51
2022-08-21T12:39:20.386Z,3.97
2022-08-21T12:40:26.015Z,4.23
2022-08-21T12:41:32.869Z,4.22
2022-08-21T12:42:37.263Z,4.22
2022-08-21T12:43:43.885Z,4.33
2022-08-21T12:46:01.636Z,3.37
2022-08-21T12:47:05.831Z,3.74
2022-08-21T12:48:28.738Z,4.09
2022-08-21T12:49:38.187Z,4.08
2022-08-21T12:50:42.761Z,3.60
2022-08-21T12:53:20.180Z,3.99
2022-08-21T12:54:16.867Z,3.73
2022-08-21T12:55:21.373Z,3.54
2022-08-21T12:56:25.482Z,3.58
2022-08-21T12:57:28.775Z,3.98
2022-08-21T12:58:31.661Z,3.42
2022-08-21T13:00:49.377Z,4.30
2022-08-21T13:01:52.193Z,3.95
2022-08-21T13:02:54.910Z,3.51
2022-08-21T13:04:04.067Z,3.85
2022-08-21T13:05:03.655Z,3.98
2022-08-21T13:06:07.033Z,3.95
2022-08-21T13:07:10.645Z,3.79
2022-08-21T13:08:13.212Z,3.66
2022-08-21T13:09:16.563Z,3.87
2022-08-21T13:10:21.655Z,4.02
2022-08-21T13:11:33.899Z,3.98
2022-08-21T13:13:44.609Z,3.61
2022-08-21T13:14:46.315Z,4.34
2022-08-21T13:15:49.500Z,4.21
2022-08-21T13:16:54.521Z,3.57
2022-08-21T13:17:57.003Z,3.12
2022-08-21T13:19:03.952Z,3.12
2022-08-21T13:20:08.294Z,3.33
2022-08-21T13:21:13.921Z,3.24
2022-08-21T13:22:33.475Z,3.52
2022-08-21T13:23:22.958Z,3.48
2022-08-21T13:24:43.377Z,3.34
2022-08-21T13:25:32.922Z,3.65
2022-08-21T13:26:35.915Z,3.99
2022-08-21T13:27:38.496Z,3.19
2022-08-21T13:28:40.949Z,3.83
2022-08-21T13:29:44.132Z,3.10
2022-08-21T13:30:49.918Z,2.99
2022-08-21T13:31:53.799Z,3.21
2022-08-21T13:32:57.776Z,3.09
2022-08-21T13:34:00.505Z,3.52
2022-08-21T13:35:09.995Z,3.33
2022-08-21T13:36:15.266Z,4.04
2022-08-21T13:37:17.801Z,3.83
2022-08-21T13:38:21.258Z,3.41
2022-08-21T13:39:25.558Z,4.14
2022-08-21T13:40:32.911Z,3.48
2022-08-21T13:41:36.398Z,3.78
2022-08-21T13:42:40.448Z,4.17
2022-08-21T13:43:47.053Z,3.45
2022-08-21T13:44:51.164Z,3.77
2022-08-21T13:45:53.745Z,4.02
2022-08-21T13:46:56.611Z,4.24
2022-08-21T13:48:00.103Z,3.63
2022-08-21T13:49:05.075Z,3.63
2022-08-21T13:50:08.572Z,3.83
2022-08-21T13:51:11.125Z,4.13
2022-08-21T13:53:31.124Z,3.58
2022-08-21T13:54:34.963Z,4.02
2022-08-21T13:55:41.237Z,4.15
2022-08-21T13:56:45.137Z,3.41
2022-08-21T13:57:47.705Z,3.71
2022-08-21T13:58:50.269Z,3.55
2022-08-21T13:59:52.823Z,3.25
2022-08-21T14:00:55.725Z,3.35
2022-08-21T14:01:59.631Z,3.51
2022-08-21T14:03:06.012Z,4.27
2022-08-21T14:04:22.712Z,4.37
2022-08-21T14:05:26.055Z,4.08
2022-08-21T14:06:30.803Z,4.03
2022-08-21T14:08:50.100Z,3.81
2022-08-21T14:09:52.595Z,3.59
2022-08-21T14:10:57.573Z,3.70
2022-08-21T14:12:05.055Z,3.62
2022-08-21T14:13:07.765Z,4.21
2022-08-21T14:14:30.249Z,3.37
2022-08-21T14:15:33.248Z,4.33
2022-08-21T14:16:45.247Z,3.44
2022-08-21T14:17:47.855Z,3.82
2022-08-21T14:19:03.743Z,3.91
2022-08-21T14:20:06.758Z,3.90
2022-08-21T14:21:09.338Z,3.77
2022-08-21T14:22:31.631Z,4.86
2022-08-21T14:23:34.413Z,4.55
2022-08-21T14:24:38.793Z,3.50
2022-08-21T14:25:44.727Z,3.58
2022-08-21T14:28:09.603Z,3.62
2022-08-21T14:29:09.474Z,4.27
2022-08-21T14:30:15.606Z,3.72
2022-08-21T14:31:18.906Z,3.74
2022-08-21T14:32:25.073Z,3.74
2022-08-21T14:33:31.723Z,4.07
2022-08-21T14:34:36.123Z,3.47
2022-08-21T14:35:38.775Z,3.48
2022-08-21T14:36:42.465Z,3.79
2022-08-21T14:37:45.038Z,3.99
2022-08-21T14:38:48.503Z,4.06
2022-08-21T14:39:51.045Z,3.71
2022-08-21T14:40:54.985Z,4.05
2022-08-21T14:41:59.332Z,3.24
2022-08-21T14:43:01.874Z,3.89
2022-08-21T14:44:08.137Z,3.93
2022-08-21T14:45:13.744Z,5.05
2022-08-21T14:47:30.245Z,4.09
2022-08-21T14:48:32.807Z,3.33
2022-08-21T14:49:35.254Z,3.66
2022-08-21T14:50:38.130Z,3.58
2022-08-21T14:51:53.976Z,3.62
2022-08-21T14:52:45.066Z,4.83
2022-08-21T14:53:48.860Z,3.91
2022-08-21T14:54:51.390Z,3.80
2022-08-21T14:55:53.867Z,3.83
2022-08-21T14:56:57.236Z,3.53
2022-08-21T14:58:00.517Z,3.62
2022-08-21T15:00:22.154Z,3.84
2022-08-21T15:01:21.192Z,3.71
2022-08-21T15:02:23.621Z,4.10
2022-08-21T15:03:26.186Z,3.65
2022-08-21T15:04:28.654Z,3.71
2022-08-21T15:05:33.673Z,3.76
2022-08-21T15:06:36.077Z,4.17
2022-08-21T15:07:38.543Z,3.97
2022-08-21T15:08:41.025Z,4.31
2022-08-21T15:09:43.654Z,3.95
2022-08-21T15:11:09.981Z,4.61
2022-08-21T15:11:51.962Z,4.33